Ituna, Canada
Current Conditions -  °F | °C
As of 12:00 PM on Thursday 30 Oct 2014 (Local Time) from CYQV Reporting Station
Few Clouds Few Clouds  
Wind Chill: 23°   Ceiling: Unl
Heat Index: 30°   Visibility: 9mi
Dew Point: 19°   Wind: 8mph
Humidity: 64%   Direction: 360°N
Pressure: 30.5"   Gusts: NA
Location:  51.17°N, 103.5°W
Report Text: CYQV 301800Z AUTO 36007KT 9SM FEW027 M01/M07 A3050 RMK SLP356
Loading
Personal Weather Stations






























Interactive Weather Map
Tropical Storm Tracking
New forecast layout! Learn more

10-Day Weather Forecast

Advertisements
Track Severe Weather on mobile